sensor_id;sensor_type;location;lat;lon;timestamp;P1;durP1;ratioP1;P2;durP2;ratioP2
23317;SDS011;11831;55.918;37.746;2022-10-29T00:00:53;14.57;;;9.23;;
23317;SDS011;11831;55.918;37.746;2022-10-29T00:03:21;11.00;;;7.55;;
23317;SDS011;11831;55.918;37.746;2022-10-29T00:06:01;10.10;;;7.68;;
23317;SDS011;11831;55.918;37.746;2022-10-29T00:08:32;9.93;;;7.50;;
23317;SDS011;11831;55.918;37.746;2022-10-29T00:11:07;11.93;;;8.18;;
23317;SDS011;11831;55.918;37.746;2022-10-29T00:13:35;11.10;;;8.00;;
23317;SDS011;11831;55.918;37.746;2022-10-29T00:16:05;13.07;;;7.70;;
23317;SDS011;11831;55.918;37.746;2022-10-29T00:18:33;10.20;;;7.85;;
23317;SDS011;11831;55.918;37.746;2022-10-29T00:21:00;12.50;;;7.57;;
23317;SDS011;11831;55.918;37.746;2022-10-29T00:23:27;9.43;;;7.07;;
23317;SDS011;11831;55.918;37.746;2022-10-29T00:25:57;10.73;;;7.62;;
23317;SDS011;11831;55.918;37.746;2022-10-29T00:28:24;9.20;;;6.30;;
23317;SDS011;11831;55.918;37.746;2022-10-29T00:30:51;9.07;;;6.78;;
23317;SDS011;11831;55.918;37.746;2022-10-29T00:33:17;8.23;;;6.37;;
23317;SDS011;11831;55.918;37.746;2022-10-29T00:35:57;11.60;;;6.97;;
23317;SDS011;11831;55.918;37.746;2022-10-29T00:38:25;8.43;;;6.05;;
23317;SDS011;11831;55.918;37.746;2022-10-29T00:40:53;8.15;;;6.18;;
23317;SDS011;11831;55.918;37.746;2022-10-29T00:43:21;7.82;;;5.62;;
23317;SDS011;11831;55.918;37.746;2022-10-29T00:48:28;8.25;;;5.62;;
23317;SDS011;11831;55.918;37.746;2022-10-29T00:51:00;8.13;;;5.25;;
23317;SDS011;11831;55.918;37.746;2022-10-29T00:53:31;8.65;;;5.87;;
23317;SDS011;11831;55.918;37.746;2022-10-29T00:55:59;7.07;;;5.40;;
23317;SDS011;11831;55.918;37.746;2022-10-29T00:58:25;8.77;;;5.07;;
23317;SDS011;11831;55.918;37.746;2022-10-29T01:00:53;8.02;;;5.70;;
23317;SDS011;11831;55.918;37.746;2022-10-29T01:03:19;7.05;;;5.20;;
23317;SDS011;11831;55.918;37.746;2022-10-29T01:05:46;9.70;;;5.40;;
23317;SDS011;11831;55.918;37.746;2022-10-29T01:08:13;8.77;;;6.20;;
23317;SDS011;11831;55.918;37.746;2022-10-29T01:17:09;7.10;;;5.57;;
23317;SDS011;11831;55.918;37.746;2022-10-29T01:19:12;8.73;;;6.55;;
23317;SDS011;11831;55.918;37.746;2022-10-29T01:22:06;7.07;;;5.70;;
23317;SDS011;11831;55.918;37.746;2022-10-29T01:24:45;8.75;;;6.43;;
23317;SDS011;11831;55.918;37.746;2022-10-29T01:30:46;9.05;;;6.65;;
23317;SDS011;11831;55.918;37.746;2022-10-29T01:42:15;8.80;;;6.85;;
23317;SDS011;11831;55.918;37.746;2022-10-29T01:45:18;9.43;;;6.72;;
23317;SDS011;11831;55.918;37.746;2022-10-29T01:48:08;8.82;;;6.87;;
23317;SDS011;11831;55.918;37.746;2022-10-29T01:50:38;9.48;;;6.97;;
23317;SDS011;11831;55.918;37.746;2022-10-29T01:53:10;7.85;;;6.30;;
23317;SDS011;11831;55.918;37.746;2022-10-29T01:55:37;9.10;;;6.43;;
23317;SDS011;11831;55.918;37.746;2022-10-29T01:58:04;8.70;;;5.65;;
23317;SDS011;11831;55.918;37.746;2022-10-29T02:00:34;10.27;;;5.90;;
23317;SDS011;11831;55.918;37.746;2022-10-29T02:03:14;9.35;;;5.95;;
23317;SDS011;11831;55.918;37.746;2022-10-29T02:14:19;9.40;;;5.65;;
23317;SDS011;11831;55.918;37.746;2022-10-29T02:16:51;8.02;;;5.47;;
23317;SDS011;11831;55.918;37.746;2022-10-29T02:19:19;9.00;;;5.82;;
23317;SDS011;11831;55.918;37.746;2022-10-29T02:21:46;7.95;;;5.15;;
23317;SDS011;11831;55.918;37.746;2022-10-29T02:24:12;7.20;;;5.45;;
23317;SDS011;11831;55.918;37.746;2022-10-29T02:26:38;9.02;;;6.18;;
23317;SDS011;11831;55.918;37.746;2022-10-29T02:29:04;7.10;;;5.43;;
23317;SDS011;11831;55.918;37.746;2022-10-29T02:31:31;8.27;;;5.95;;
23317;SDS011;11831;55.918;37.746;2022-10-29T02:33:57;7.78;;;6.12;;
23317;SDS011;11831;55.918;37.746;2022-10-29T02:36:23;7.20;;;5.20;;
23317;SDS011;11831;55.918;37.746;2022-10-29T02:38:50;7.78;;;5.45;;
23317;SDS011;11831;55.918;37.746;2022-10-29T02:41:16;7.93;;;5.85;;
23317;SDS011;11831;55.918;37.746;2022-10-29T02:43:43;8.00;;;5.60;;
23317;SDS011;11831;55.918;37.746;2022-10-29T02:46:13;7.32;;;5.80;;
23317;SDS011;11831;55.918;37.746;2022-10-29T02:48:41;6.95;;;5.55;;
23317;SDS011;11831;55.918;37.746;2022-10-29T02:51:07;6.80;;;5.75;;
23317;SDS011;11831;55.918;37.746;2022-10-29T02:53:34;8.07;;;5.60;;
23317;SDS011;11831;55.918;37.746;2022-10-29T02:56:00;6.50;;;5.00;;
23317;SDS011;11831;55.918;37.746;2022-10-29T02:58:27;6.03;;;5.07;;
23317;SDS011;11831;55.918;37.746;2022-10-29T03:00:53;7.07;;;5.72;;
23317;SDS011;11831;55.918;37.746;2022-10-29T03:03:20;8.20;;;5.68;;
23317;SDS011;11831;55.918;37.746;2022-10-29T03:05:46;7.30;;;5.20;;
23317;SDS011;11831;55.918;37.746;2022-10-29T03:08:13;6.07;;;4.95;;
23317;SDS011;11831;55.918;37.746;2022-10-29T03:10:39;6.00;;;5.00;;
23317;SDS011;11831;55.918;37.746;2022-10-29T03:13:05;7.53;;;5.93;;
23317;SDS011;11831;55.918;37.746;2022-10-29T03:15:31;8.18;;;6.10;;
23317;SDS011;11831;55.918;37.746;2022-10-29T03:17:58;6.05;;;5.25;;
23317;SDS011;11831;55.918;37.746;2022-10-29T03:20:24;7.85;;;5.40;;
23317;SDS011;11831;55.918;37.746;2022-10-29T03:22:51;7.95;;;5.00;;
23317;SDS011;11831;55.918;37.746;2022-10-29T03:25:17;5.22;;;4.43;;
23317;SDS011;11831;55.918;37.746;2022-10-29T03:27:43;7.37;;;4.87;;
23317;SDS011;11831;55.918;37.746;2022-10-29T03:30:14;6.05;;;4.50;;
23317;SDS011;11831;55.918;37.746;2022-10-29T03:32:42;5.45;;;4.68;;
23317;SDS011;11831;55.918;37.746;2022-10-29T03:35:10;7.95;;;5.25;;
23317;SDS011;11831;55.918;37.746;2022-10-29T03:37:38;5.93;;;4.55;;
23317;SDS011;11831;55.918;37.746;2022-10-29T03:40:05;5.18;;;4.68;;
23317;SDS011;11831;55.918;37.746;2022-10-29T03:42:32;6.03;;;4.90;;
23317;SDS011;11831;55.918;37.746;2022-10-29T03:44:59;6.28;;;5.50;;
23317;SDS011;11831;55.918;37.746;2022-10-29T03:47:26;5.68;;;4.43;;
23317;SDS011;11831;55.918;37.746;2022-10-29T03:49:53;5.70;;;4.82;;
23317;SDS011;11831;55.918;37.746;2022-10-29T03:52:20;5.75;;;4.95;;
23317;SDS011;11831;55.918;37.746;2022-10-29T03:54:46;8.13;;;5.03;;
23317;SDS011;11831;55.918;37.746;2022-10-29T03:57:13;5.28;;;4.62;;
23317;SDS011;11831;55.918;37.746;2022-10-29T03:59:39;6.20;;;5.18;;
23317;SDS011;11831;55.918;37.746;2022-10-29T04:02:05;7.32;;;5.35;;
23317;SDS011;11831;55.918;37.746;2022-10-29T04:04:32;6.55;;;5.32;;
23317;SDS011;11831;55.918;37.746;2022-10-29T04:06:58;6.15;;;5.25;;
23317;SDS011;11831;55.918;37.746;2022-10-29T04:09:24;10.05;;;6.32;;
23317;SDS011;11831;55.918;37.746;2022-10-29T04:11:51;7.37;;;5.28;;
23317;SDS011;11831;55.918;37.746;2022-10-29T04:14:17;5.50;;;4.87;;
23317;SDS011;11831;55.918;37.746;2022-10-29T04:16:43;8.15;;;6.03;;
23317;SDS011;11831;55.918;37.746;2022-10-29T04:19:09;7.47;;;6.12;;
23317;SDS011;11831;55.918;37.746;2022-10-29T04:21:35;9.82;;;6.12;;
23317;SDS011;11831;55.918;37.746;2022-10-29T04:24:02;10.00;;;5.72;;
23317;SDS011;11831;55.918;37.746;2022-10-29T04:26:29;6.57;;;5.40;;
23317;SDS011;11831;55.918;37.746;2022-10-29T04:28:55;7.35;;;5.82;;
23317;SDS011;11831;55.918;37.746;2022-10-29T04:31:21;8.13;;;5.10;;
23317;SDS011;11831;55.918;37.746;2022-10-29T04:33:47;8.30;;;5.20;;
23317;SDS011;11831;55.918;37.746;2022-10-29T04:36:13;6.37;;;5.32;;
23317;SDS011;11831;55.918;37.746;2022-10-29T04:38:40;5.95;;;5.30;;
23317;SDS011;11831;55.918;37.746;2022-10-29T04:41:06;5.60;;;4.95;;
23317;SDS011;11831;55.918;37.746;2022-10-29T04:43:32;5.70;;;5.10;;
23317;SDS011;11831;55.918;37.746;2022-10-29T04:45:59;7.00;;;5.32;;
23317;SDS011;11831;55.918;37.746;2022-10-29T04:48:27;7.40;;;5.57;;
23317;SDS011;11831;55.918;37.746;2022-10-29T04:50:54;6.37;;;5.50;;
23317;SDS011;11831;55.918;37.746;2022-10-29T04:53:20;7.18;;;5.50;;
23317;SDS011;11831;55.918;37.746;2022-10-29T04:55:47;6.90;;;5.40;;
23317;SDS011;11831;55.918;37.746;2022-10-29T04:58:14;5.90;;;5.30;;
23317;SDS011;11831;55.918;37.746;2022-10-29T05:00:42;6.22;;;5.15;;
23317;SDS011;11831;55.918;37.746;2022-10-29T05:03:09;6.32;;;5.22;;
23317;SDS011;11831;55.918;37.746;2022-10-29T05:05:36;6.55;;;5.25;;
23317;SDS011;11831;55.918;37.746;2022-10-29T05:08:04;7.30;;;5.30;;
23317;SDS011;11831;55.918;37.746;2022-10-29T05:10:32;5.72;;;5.00;;
23317;SDS011;11831;55.918;37.746;2022-10-29T05:13:01;7.10;;;5.37;;
23317;SDS011;11831;55.918;37.746;2022-10-29T05:15:29;8.02;;;5.68;;
23317;SDS011;11831;55.918;37.746;2022-10-29T05:17:56;5.57;;;4.97;;
23317;SDS011;11831;55.918;37.746;2022-10-29T05:20:24;11.43;;;6.00;;
23317;SDS011;11831;55.918;37.746;2022-10-29T05:23:24;7.87;;;5.32;;
23317;SDS011;11831;55.918;37.746;2022-10-29T05:25:43;6.03;;;5.00;;
23317;SDS011;11831;55.918;37.746;2022-10-29T05:28:14;6.12;;;5.03;;
23317;SDS011;11831;55.918;37.746;2022-10-29T05:30:45;8.23;;;4.97;;
23317;SDS011;11831;55.918;37.746;2022-10-29T05:33:13;7.18;;;4.60;;
23317;SDS011;11831;55.918;37.746;2022-10-29T05:35:41;6.60;;;4.60;;
23317;SDS011;11831;55.918;37.746;2022-10-29T05:38:08;6.65;;;4.50;;
23317;SDS011;11831;55.918;37.746;2022-10-29T05:40:35;7.22;;;4.70;;
23317;SDS011;11831;55.918;37.746;2022-10-29T05:43:02;5.45;;;4.15;;
23317;SDS011;11831;55.918;37.746;2022-10-29T05:45:28;5.78;;;4.53;;
23317;SDS011;11831;55.918;37.746;2022-10-29T05:47:55;4.95;;;4.32;;
23317;SDS011;11831;55.918;37.746;2022-10-29T05:50:23;7.62;;;4.05;;
23317;SDS011;11831;55.918;37.746;2022-10-29T05:52:56;7.57;;;5.07;;
23317;SDS011;11831;55.918;37.746;2022-10-29T05:55:23;6.62;;;4.68;;
23317;SDS011;11831;55.918;37.746;2022-10-29T05:58:00;7.97;;;4.82;;
23317;SDS011;11831;55.918;37.746;2022-10-29T06:00:29;7.40;;;4.43;;
23317;SDS011;11831;55.918;37.746;2022-10-29T06:02:59;5.80;;;4.85;;
23317;SDS011;11831;55.918;37.746;2022-10-29T06:05:25;6.35;;;4.68;;
23317;SDS011;11831;55.918;37.746;2022-10-29T06:07:55;8.93;;;5.03;;
23317;SDS011;11831;55.918;37.746;2022-10-29T06:10:23;5.78;;;4.22;;
23317;SDS011;11831;55.918;37.746;2022-10-29T06:12:50;6.78;;;4.80;;
23317;SDS011;11831;55.918;37.746;2022-10-29T06:15:17;6.70;;;4.30;;
23317;SDS011;11831;55.918;37.746;2022-10-29T06:17:44;7.05;;;4.32;;
23317;SDS011;11831;55.918;37.746;2022-10-29T06:20:12;7.97;;;4.30;;
23317;SDS011;11831;55.918;37.746;2022-10-29T06:22:40;6.28;;;4.43;;
23317;SDS011;11831;55.918;37.746;2022-10-29T06:25:06;8.68;;;5.47;;
23317;SDS011;11831;55.918;37.746;2022-10-29T06:27:32;8.65;;;4.68;;
23317;SDS011;11831;55.918;37.746;2022-10-29T06:29:59;7.65;;;4.87;;
23317;SDS011;11831;55.918;37.746;2022-10-29T06:32:25;5.70;;;4.57;;
23317;SDS011;11831;55.918;37.746;2022-10-29T06:34:51;5.62;;;4.35;;
23317;SDS011;11831;55.918;37.746;2022-10-29T06:37:18;6.68;;;4.50;;
23317;SDS011;11831;55.918;37.746;2022-10-29T06:39:44;8.38;;;4.55;;
23317;SDS011;11831;55.918;37.746;2022-10-29T06:42:10;6.47;;;4.40;;
23317;SDS011;11831;55.918;37.746;2022-10-29T06:44:36;6.53;;;4.20;;
23317;SDS011;11831;55.918;37.746;2022-10-29T06:47:03;8.77;;;4.22;;
23317;SDS011;11831;55.918;37.746;2022-10-29T06:49:29;5.60;;;4.15;;
23317;SDS011;11831;55.918;37.746;2022-10-29T06:51:55;4.35;;;3.95;;
23317;SDS011;11831;55.918;37.746;2022-10-29T06:54:22;7.12;;;4.35;;
23317;SDS011;11831;55.918;37.746;2022-10-29T06:56:48;5.40;;;3.85;;
23317;SDS011;11831;55.918;37.746;2022-10-29T06:59:14;8.77;;;4.43;;
23317;SDS011;11831;55.918;37.746;2022-10-29T07:01:40;6.07;;;4.15;;
23317;SDS011;11831;55.918;37.746;2022-10-29T07:04:07;5.53;;;4.12;;
23317;SDS011;11831;55.918;37.746;2022-10-29T07:06:33;6.85;;;4.03;;
23317;SDS011;11831;55.918;37.746;2022-10-29T07:09:00;3.83;;;3.42;;
23317;SDS011;11831;55.918;37.746;2022-10-29T07:11:26;7.68;;;4.03;;
23317;SDS011;11831;55.918;37.746;2022-10-29T07:13:52;5.65;;;3.75;;
23317;SDS011;11831;55.918;37.746;2022-10-29T07:16:19;4.87;;;4.12;;
23317;SDS011;11831;55.918;37.746;2022-10-29T07:18:45;4.22;;;3.80;;
23317;SDS011;11831;55.918;37.746;2022-10-29T07:21:11;6.40;;;4.18;;
23317;SDS011;11831;55.918;37.746;2022-10-29T07:23:38;6.22;;;4.45;;
23317;SDS011;11831;55.918;37.746;2022-10-29T07:26:04;4.85;;;4.32;;
23317;SDS011;11831;55.918;37.746;2022-10-29T07:28:42;5.40;;;4.37;;
23317;SDS011;11831;55.918;37.746;2022-10-29T07:31:11;4.53;;;3.80;;
23317;SDS011;11831;55.918;37.746;2022-10-29T07:33:37;6.30;;;3.90;;
23317;SDS011;11831;55.918;37.746;2022-10-29T07:36:15;4.95;;;3.90;;
23317;SDS011;11831;55.918;37.746;2022-10-29T07:38:42;5.00;;;3.87;;
23317;SDS011;11831;55.918;37.746;2022-10-29T07:41:08;6.90;;;4.07;;
23317;SDS011;11831;55.918;37.746;2022-10-29T07:43:34;6.00;;;4.37;;
23317;SDS011;11831;55.918;37.746;2022-10-29T07:46:00;6.03;;;4.05;;
23317;SDS011;11831;55.918;37.746;2022-10-29T07:48:27;5.68;;;3.95;;
23317;SDS011;11831;55.918;37.746;2022-10-29T07:50:54;7.15;;;4.20;;
23317;SDS011;11831;55.918;37.746;2022-10-29T07:53:23;8.15;;;4.43;;
23317;SDS011;11831;55.918;37.746;2022-10-29T07:55:53;6.78;;;3.75;;
23317;SDS011;11831;55.918;37.746;2022-10-29T07:58:20;6.65;;;4.47;;
23317;SDS011;11831;55.918;37.746;2022-10-29T08:00:47;5.97;;;4.15;;
23317;SDS011;11831;55.918;37.746;2022-10-29T08:03:13;5.72;;;4.18;;
23317;SDS011;11831;55.918;37.746;2022-10-29T08:05:40;6.30;;;4.25;;
23317;SDS011;11831;55.918;37.746;2022-10-29T08:08:06;9.13;;;4.82;;
23317;SDS011;11831;55.918;37.746;2022-10-29T08:10:33;5.95;;;4.50;;
23317;SDS011;11831;55.918;37.746;2022-10-29T08:13:01;5.15;;;4.40;;
23317;SDS011;11831;55.918;37.746;2022-10-29T08:15:29;8.68;;;4.60;;
23317;SDS011;11831;55.918;37.746;2022-10-29T08:17:57;5.78;;;4.12;;
23317;SDS011;11831;55.918;37.746;2022-10-29T08:20:25;5.85;;;4.07;;
23317;SDS011;11831;55.918;37.746;2022-10-29T08:22:53;6.40;;;4.45;;
23317;SDS011;11831;55.918;37.746;2022-10-29T08:25:19;7.37;;;4.45;;
23317;SDS011;11831;55.918;37.746;2022-10-29T08:27:56;5.57;;;4.12;;
23317;SDS011;11831;55.918;37.746;2022-10-29T08:30:27;6.68;;;4.15;;
23317;SDS011;11831;55.918;37.746;2022-10-29T08:32:53;5.78;;;4.53;;
23317;SDS011;11831;55.918;37.746;2022-10-29T08:35:20;6.72;;;4.40;;
23317;SDS011;11831;55.918;37.746;2022-10-29T08:37:46;6.32;;;3.95;;
23317;SDS011;11831;55.918;37.746;2022-10-29T08:43:22;7.18;;;3.33;;
23317;SDS011;11831;55.918;37.746;2022-10-29T08:45:56;7.75;;;3.85;;
23317;SDS011;11831;55.918;37.746;2022-10-29T08:50:50;6.68;;;4.00;;
23317;SDS011;11831;55.918;37.746;2022-10-29T08:53:23;5.93;;;4.25;;
23317;SDS011;11831;55.918;37.746;2022-10-29T08:55:57;6.43;;;3.97;;
23317;SDS011;11831;55.918;37.746;2022-10-29T09:01:20;9.23;;;4.30;;
